Time;durP1;ratioP1;P1;durP2;ratioP2;P2;SDS_P1;SDS_P2;PMS_P1;PMS_P2;Temp;Humidity;BMP_temperature;BMP_pressure;BME280_temperature;BME280_humidity;BME280_pressure;Samples;Min_cycle;Max_cycle;Signal;HPM_P1;HPM_P2
2022/12/11 00:01:10;;;;;;;58.90;18.58;;;1.60;99.90;;;;;;5136878;28;20058;-73
2022/12/11 00:03:36;;;;;;;66.53;19.95;;;1.60;99.90;;;;;;5140270;27;20042;-74
2022/12/11 00:06:11;;;;;;;59.63;20.42;;;1.70;99.90;;;;;;5140454;27;20114;-73
2022/12/11 00:08:37;;;;;;;57.22;19.80;;;1.70;99.90;;;;;;5140511;27;20331;-73
2022/12/11 00:11:04;;;;;;;55.80;19.45;;;1.70;99.90;;;;;;5140826;27;20031;-73
2022/12/11 00:13:29;;;;;;;61.45;19.77;;;1.70;99.90;;;;;;5140490;27;20070;-73
2022/12/11 00:15:57;;;;;;;53.55;19.70;;;1.60;99.90;;;;;;5122263;27;20050;-74
2022/12/11 00:18:23;;;;;;;55.78;19.05;;;1.50;99.90;;;;;;5140187;27;20328;-74
2022/12/11 00:20:49;;;;;;;51.97;17.83;;;1.70;99.90;;;;;;5122400;27;20370;-75
2022/12/11 00:23:15;;;;;;;55.40;18.77;;;1.70;99.90;;;;;;5140603;27;20039;-73
2022/12/11 00:25:45;;;;;;;50.33;17.30;;;1.70;99.90;;;;;;5140328;27;20058;-73
2022/12/11 00:28:13;;;;;;;51.40;16.55;;;1.70;99.90;;;;;;5122307;27;20438;-73
2022/12/11 00:30:41;;;;;;;44.53;15.65;;;1.80;99.90;;;;;;5140047;27;20123;-74
2022/12/11 00:33:08;;;;;;;43.35;15.52;;;2.00;99.90;;;;;;5139998;27;20042;-74
2022/12/11 00:35:41;;;;;;;44.47;16.33;;;2.00;99.90;;;;;;5122292;27;20035;-73
2022/12/11 00:38:07;;;;;;;49.50;16.80;;;2.10;99.90;;;;;;5140213;27;20054;-73
2022/12/11 00:40:36;;;;;;;39.55;16.02;;;2.30;99.90;;;;;;5140174;27;20039;-74
2022/12/11 00:43:02;;;;;;;41.97;15.43;;;2.30;99.90;;;;;;5121878;27;20039;-73
2022/12/11 00:45:28;;;;;;;43.85;16.38;;;2.40;99.90;;;;;;5139763;27;20104;-74
2022/12/11 00:47:53;;;;;;;46.97;17.08;;;2.40;99.90;;;;;;5140057;27;20420;-74
2022/12/11 00:50:19;;;;;;;43.40;15.45;;;2.40;99.90;;;;;;5139944;27;20047;-73
2022/12/11 00:52:45;;;;;;;47.72;17.17;;;2.30;99.90;;;;;;5139555;27;20039;-74
2022/12/11 00:55:10;;;;;;;43.58;17.48;;;2.40;99.90;;;;;;5139950;27;20127;-74
2022/12/11 00:57:36;;;;;;;44.65;15.90;;;2.50;99.90;;;;;;5121174;27;20055;-73
2022/12/11 01:00:05;;;;;;;45.13;17.02;;;2.50;99.90;;;;;;5121542;27;20039;-74
2022/12/11 01:02:32;;;;;;;49.60;16.58;;;2.50;99.90;;;;;;5139584;27;20031;-74
2022/12/11 01:04:58;;;;;;;41.55;15.95;;;2.50;99.90;;;;;;5121198;27;20042;-74
2022/12/11 01:07:24;;;;;;;47.55;16.90;;;2.50;99.90;;;;;;5139019;27;20331;-73
2022/12/11 01:12:34;;;;;;;46.50;16.00;;;2.30;99.90;;;;;;5139373;27;20050;-74
2022/12/11 01:14:59;;;;;;;50.95;16.77;;;2.20;99.90;;;;;;5138451;27;20046;-74
2022/12/11 01:17:25;;;;;;;48.40;15.45;;;2.10;99.90;;;;;;5121102;27;20043;-74
2022/12/11 01:19:53;;;;;;;54.88;17.58;;;2.10;99.90;;;;;;5139231;27;20123;-73
2022/12/11 01:22:19;;;;;;;43.58;15.90;;;2.00;99.90;;;;;;5139464;27;20132;-73
2022/12/11 01:24:45;;;;;;;44.85;15.68;;;1.90;99.90;;;;;;5139393;27;20031;-73
2022/12/11 01:27:11;;;;;;;46.90;15.70;;;2.00;99.90;;;;;;5120910;27;20038;-73
2022/12/11 01:29:36;;;;;;;45.80;16.02;;;2.10;99.90;;;;;;5139276;27;20039;-73
2022/12/11 01:32:02;;;;;;;44.60;16.05;;;2.20;99.90;;;;;;5139009;27;20031;-73
2022/12/11 01:34:29;;;;;;;52.45;16.92;;;2.10;99.90;;;;;;5121014;27;20047;-73
2022/12/11 01:36:54;;;;;;;43.88;15.43;;;2.00;99.90;;;;;;5120211;27;20043;-74
2022/12/11 01:39:20;;;;;;;54.80;16.35;;;2.00;99.90;;;;;;5103666;27;20058;-73
2022/12/11 01:41:46;;;;;;;45.58;15.55;;;2.20;99.90;;;;;;5138672;27;20039;-74
2022/12/11 01:44:14;;;;;;;52.22;17.30;;;2.30;99.90;;;;;;5138832;27;20039;-73
2022/12/11 01:46:40;;;;;;;46.30;16.75;;;2.40;99.90;;;;;;5138875;27;20118;-74
2022/12/11 01:49:16;;;;;;;55.03;17.15;;;2.60;99.90;;;;;;5138711;27;20035;-73
2022/12/11 01:52:03;;;;;;;50.67;16.75;;;2.60;99.90;;;;;;5103943;27;20043;-74
2022/12/11 01:54:30;;;;;;;58.10;17.40;;;2.50;99.90;;;;;;5138731;27;20066;-74
2022/12/11 01:56:59;;;;;;;54.15;17.70;;;2.50;99.90;;;;;;5138244;27;20058;-74
2022/12/11 01:59:27;;;;;;;47.88;16.45;;;2.60;99.90;;;;;;5138529;27;20065;-74
2022/12/11 02:02:19;;;;;;;51.83;16.58;;;2.80;99.90;;;;;;5120112;27;20424;-74
2022/12/11 02:04:45;;;;;;;50.88;17.80;;;2.90;99.90;;;;;;5137774;27;20077;-74
2022/12/11 02:07:11;;;;;;;42.00;15.70;;;2.90;99.90;;;;;;5137881;27;20047;-74
2022/12/11 02:09:40;;;;;;;44.22;16.27;;;2.90;99.90;;;;;;5138308;27;20043;-74
2022/12/11 02:12:20;;;;;;;43.05;15.15;;;2.90;99.90;;;;;;5138144;27;20039;-74
2022/12/11 02:15:07;;;;;;;46.35;17.15;;;3.00;99.90;;;;;;5138077;27;20043;-74
2022/12/11 02:18:09;;;;;;;52.55;16.90;;;3.10;99.90;;;;;;5138356;27;20035;-74
2022/12/11 02:20:48;;;;;;;50.65;16.27;;;3.00;99.90;;;;;;5124829;27;20055;-74
2022/12/11 02:23:39;;;;;;;41.05;15.63;;;3.10;99.90;;;;;;5138011;27;20340;-74
2022/12/11 02:26:19;;;;;;;44.33;17.40;;;3.20;99.90;;;;;;5119734;27;20031;-74
2022/12/11 02:28:49;;;;;;;55.80;15.93;;;3.10;99.90;;;;;;5119909;27;20428;-73
2022/12/11 02:31:18;;;;;;;53.75;17.23;;;3.10;99.90;;;;;;5137975;27;20047;-74
2022/12/11 02:34:17;;;;;;;50.95;16.42;;;3.10;99.90;;;;;;5137812;27;20088;-74
2022/12/11 02:36:48;;;;;;;61.38;18.58;;;3.10;99.90;;;;;;5137293;27;20451;-74
2022/12/11 02:39:15;;;;;;;51.35;15.88;;;3.20;99.90;;;;;;5138018;27;20031;-74
2022/12/11 02:41:46;;;;;;;51.88;16.77;;;3.20;99.90;;;;;;5137693;27;20043;-74
2022/12/11 02:44:14;;;;;;;47.67;17.10;;;3.20;99.90;;;;;;5137668;27;20049;-75
2022/12/11 02:46:41;;;;;;;75.95;19.30;;;3.30;99.90;;;;;;5119834;27;20071;-74
2022/12/11 02:49:10;;;;;;;63.55;18.80;;;3.30;99.90;;;;;;5137681;27;20075;-73
2022/12/11 02:51:39;;;;;;;58.28;17.00;;;3.20;99.90;;;;;;5137760;27;20100;-74
2022/12/11 02:54:10;;;;;;;56.42;18.48;;;3.20;99.90;;;;;;5137353;27;20035;-74
2022/12/11 02:56:45;;;;;;;87.00;17.92;;;3.20;99.90;;;;;;5137342;27;20083;-73
2022/12/11 02:59:19;;;;;;;77.85;19.75;;;3.10;99.90;;;;;;5120195;28;20047;-74
2022/12/11 03:01:46;;;;;;;53.03;17.15;;;3.10;99.90;;;;;;5137437;28;20089;-74
2022/12/11 03:04:11;;;;;;;57.25;17.67;;;2.70;99.90;;;;;;5137435;28;20028;-74
2022/12/11 03:06:47;;;;;;;56.63;17.98;;;2.80;99.90;;;;;;5136833;28;20096;-74
2022/12/11 03:09:13;;;;;;;68.00;19.08;;;2.80;99.90;;;;;;5137774;28;20047;-74
2022/12/11 03:11:38;;;;;;;60.92;18.95;;;2.90;99.90;;;;;;5102029;28;20043;-74
2022/12/11 03:14:05;;;;;;;55.60;17.98;;;2.80;99.90;;;;;;5137642;28;20039;-74
2022/12/11 03:16:45;;;;;;;53.15;17.60;;;2.80;99.90;;;;;;5137269;28;20042;-74
2022/12/11 03:19:35;;;;;;;58.70;18.48;;;2.90;99.90;;;;;;5119191;28;20043;-74
2022/12/11 03:22:16;;;;;;;60.78;17.33;;;2.90;99.90;;;;;;5118959;28;20039;-73
2022/12/11 03:24:44;;;;;;;47.67;17.35;;;2.80;99.90;;;;;;5137445;28;20040;-73
2022/12/11 03:27:42;;;;;;;47.97;17.35;;;2.90;99.90;;;;;;5137371;28;20424;-73
2022/12/11 03:30:12;;;;;;;47.58;17.15;;;2.90;99.90;;;;;;5137451;28;20058;-74
2022/12/11 03:32:47;;;;;;;53.95;18.70;;;2.80;99.90;;;;;;5102184;28;20061;-73
2022/12/11 03:35:29;;;;;;;53.63;17.52;;;2.80;99.90;;;;;;5137324;28;20408;-73
2022/12/11 03:38:00;;;;;;;48.65;15.65;;;2.80;99.90;;;;;;5139346;27;20155;-74
2022/12/11 03:40:30;;;;;;;45.17;16.38;;;2.80;99.90;;;;;;5141368;27;20035;-74
2022/12/11 03:42:57;;;;;;;45.53;16.33;;;2.90;99.90;;;;;;5141276;27;20073;-73
2022/12/11 03:45:25;;;;;;;46.72;16.33;;;2.90;99.90;;;;;;5141147;27;20043;-73
2022/12/11 03:47:52;;;;;;;47.35;16.58;;;2.90;99.90;;;;;;5141283;27;20385;-73
2022/12/11 03:50:21;;;;;;;49.30;15.98;;;2.90;99.90;;;;;;5140907;27;20074;-73
2022/12/11 03:52:51;;;;;;;44.72;16.02;;;3.00;99.90;;;;;;5141168;27;20047;-73
2022/12/11 03:55:19;;;;;;;49.28;16.83;;;3.10;99.90;;;;;;5140633;27;20089;-73
2022/12/11 03:57:45;;;;;;;49.92;16.17;;;3.00;99.90;;;;;;5122365;27;20340;-73
2022/12/11 04:00:15;;;;;;;50.17;16.98;;;2.90;99.90;;;;;;5140780;27;20031;-73
2022/12/11 04:02:42;;;;;;;52.50;17.30;;;2.80;99.90;;;;;;5122566;27;20035;-74
2022/12/11 04:05:08;;;;;;;48.70;16.48;;;2.80;99.90;;;;;;5140826;27;20042;-73
2022/12/11 04:07:34;;;;;;;48.22;16.55;;;2.80;99.90;;;;;;5140147;27;20050;-73
2022/12/11 04:10:00;;;;;;;46.35;17.08;;;3.00;99.90;;;;;;5140481;27;20031;-74
2022/12/11 04:12:25;;;;;;;43.80;15.63;;;3.00;99.90;;;;;;5140565;27;20043;-73
2022/12/11 04:15:03;;;;;;;69.85;18.60;;;3.10;99.90;;;;;;5140657;27;20039;-73
2022/12/11 04:26:17;;;;;;;64.80;18.40;;;3.10;99.90;;;;;;5140120;27;20092;-73
2022/12/11 04:28:44;;;;;;;51.97;17.25;;;3.10;99.90;;;;;;5122086;27;20096;-73
2022/12/11 04:31:14;;;;;;;58.92;16.77;;;3.10;99.90;;;;;;5140328;27;20038;-73
2022/12/11 04:33:40;;;;;;;66.15;17.80;;;3.20;99.90;;;;;;5140217;27;20039;-73
2022/12/11 04:36:06;;;;;;;59.28;17.10;;;3.30;99.90;;;;;;5139512;27;20108;-73
2022/12/11 04:38:32;;;;;;;49.78;15.75;;;3.30;99.90;;;;;;5139843;27;20329;-73
2022/12/11 04:41:04;;;;;;;47.58;16.15;;;3.20;99.90;;;;;;5140209;27;20042;-73
2022/12/11 04:43:30;;;;;;;62.75;16.95;;;3.20;99.90;;;;;;5121651;27;20127;-73
2022/12/11 04:46:02;;;;;;;44.67;15.75;;;3.00;99.90;;;;;;5140076;27;20118;-77
2022/12/11 04:48:28;;;;;;;49.70;15.73;;;3.00;99.90;;;;;;5120706;28;20130;-73
2022/12/11 04:50:54;;;;;;;52.58;16.77;;;3.00;99.90;;;;;;5139729;27;20117;-73
2022/12/11 04:53:19;;;;;;;51.72;16.40;;;2.70;99.90;;;;;;5140027;27;20409;-73
2022/12/11 04:55:45;;;;;;;46.25;17.08;;;2.80;99.90;;;;;;5139648;27;20039;-74
2022/12/11 04:58:12;;;;;;;44.20;14.77;;;2.90;99.90;;;;;;5104259;27;20051;-73
2022/12/11 05:00:39;;;;;;;45.08;16.48;;;3.00;99.90;;;;;;5121453;27;20047;-73
2022/12/11 05:03:05;;;;;;;49.72;16.63;;;2.90;99.90;;;;;;5121546;27;20039;-74
2022/12/11 05:05:31;;;;;;;48.97;17.15;;;2.90;99.90;;;;;;5139481;27;20369;-73
2022/12/11 05:07:56;;;;;;;56.30;18.65;;;3.00;99.90;;;;;;5120779;27;20155;-74
2022/12/11 05:10:22;;;;;;;54.70;16.83;;;3.00;99.90;;;;;;5139292;27;20047;-73
2022/12/11 05:12:48;;;;;;;62.88;17.55;;;2.90;99.90;;;;;;5104375;27;20043;-74
2022/12/11 05:15:13;;;;;;;61.25;17.90;;;3.10;99.90;;;;;;5139530;27;20443;-73
2022/12/11 05:17:39;;;;;;;49.65;16.67;;;3.10;99.90;;;;;;5139183;27;20039;-73
2022/12/11 05:20:05;;;;;;;47.95;16.92;;;3.10;99.90;;;;;;5139483;27;20357;-73
2022/12/11 05:22:31;;;;;;;52.95;18.15;;;3.20;99.90;;;;;;5139379;27;20039;-74
2022/12/11 05:24:57;;;;;;;50.05;16.58;;;3.20;99.90;;;;;;5139202;27;20049;-74
2022/12/11 05:27:22;;;;;;;72.72;19.20;;;3.30;99.90;;;;;;5139029;27;20111;-73
2022/12/11 05:29:48;;;;;;;77.72;20.23;;;3.30;99.90;;;;;;5139117;27;20031;-73
2022/12/11 05:32:14;;;;;;;53.35;17.85;;;3.20;99.90;;;;;;5138942;27;20463;-73
2022/12/11 05:34:39;;;;;;;58.08;18.08;;;3.10;99.90;;;;;;5138877;27;20071;-73
2022/12/11 05:37:05;;;;;;;65.43;17.50;;;3.10;99.90;;;;;;5138407;27;20039;-73
2022/12/11 05:39:30;;;;;;;69.50;18.52;;;3.20;99.90;;;;;;5103495;27;20069;-74
2022/12/11 05:41:56;;;;;;;53.95;16.40;;;3.30;99.90;;;;;;5139036;27;20057;-73
2022/12/11 05:44:22;;;;;;;58.15;17.33;;;3.30;99.90;;;;;;5138805;27;20127;-73
2022/12/11 05:46:48;;;;;;;58.38;17.20;;;3.40;99.90;;;;;;5120403;27;20039;-74
2022/12/11 05:49:14;;;;;;;44.70;15.98;;;3.40;99.90;;;;;;5138586;27;20046;-73
2022/12/11 05:51:40;;;;;;;75.75;20.05;;;3.50;99.90;;;;;;5138521;27;20031;-73
2022/12/11 05:54:06;;;;;;;71.38;18.90;;;3.50;99.90;;;;;;5138368;27;20423;-77
2022/12/11 05:56:34;;;;;;;54.25;17.45;;;3.40;99.90;;;;;;5138512;27;20042;-73
2022/12/11 05:59:01;;;;;;;51.45;17.73;;;3.20;99.90;;;;;;5138658;27;20039;-74
2022/12/11 06:01:38;;;;;;;52.75;17.00;;;3.30;99.90;;;;;;5119980;27;20188;-73
2022/12/11 06:04:06;;;;;;;51.85;16.55;;;3.40;99.90;;;;;;5138471;27;20339;-73
2022/12/11 06:06:32;;;;;;;56.88;16.88;;;3.50;99.90;;;;;;5137779;27;20324;-74
2022/12/11 06:08:59;;;;;;;50.60;15.77;;;3.50;99.90;;;;;;5119898;27;20446;-74
2022/12/11 06:11:27;;;;;;;51.53;15.82;;;3.50;99.90;;;;;;5138413;27;20340;-73
2022/12/11 06:13:53;;;;;;;64.72;18.05;;;3.60;99.90;;;;;;5138143;27;20046;-73
2022/12/11 06:16:20;;;;;;;67.03;18.13;;;3.50;99.90;;;;;;5120106;27;20053;-74
2022/12/11 06:18:46;;;;;;;52.88;16.73;;;3.50;99.90;;;;;;5137986;27;20115;-73
2022/12/11 06:21:20;;;;;;;46.22;16.27;;;3.50;99.90;;;;;;5138250;27;20376;-73
2022/12/11 06:23:48;;;;;;;49.90;17.58;;;3.50;99.90;;;;;;5137892;27;20074;-74
2022/12/11 06:26:15;;;;;;;48.75;17.52;;;3.40;99.90;;;;;;5119630;27;20035;-73
2022/12/11 06:28:41;;;;;;;48.03;15.77;;;3.30;99.90;;;;;;5119973;27;20042;-73
2022/12/11 06:31:07;;;;;;;51.20;16.95;;;3.20;99.90;;;;;;5119954;27;20339;-73
2022/12/11 06:33:33;;;;;;;57.53;16.75;;;3.10;99.90;;;;;;5114607;28;20042;-73
2022/12/11 06:36:12;;;;;;;47.55;16.05;;;3.00;99.90;;;;;;5117012;28;20050;-74
2022/12/11 06:38:38;;;;;;;50.20;16.30;;;3.10;99.90;;;;;;5117470;28;20070;-73
2022/12/11 06:41:05;;;;;;;44.35;15.93;;;3.20;99.90;;;;;;5117291;28;20031;-73
2022/12/11 06:43:32;;;;;;;46.53;16.15;;;3.20;99.90;;;;;;5117056;28;20075;-73
2022/12/11 06:45:58;;;;;;;49.60;17.15;;;3.30;99.90;;;;;;5117298;28;20050;-73
2022/12/11 06:48:24;;;;;;;51.63;16.95;;;3.40;99.90;;;;;;5099212;28;20046;-74
2022/12/11 06:50:49;;;;;;;47.97;16.25;;;3.20;99.90;;;;;;5099346;28;20114;-73
2022/12/11 06:53:15;;;;;;;49.38;16.55;;;3.20;99.90;;;;;;5099198;28;20126;-73
2022/12/11 06:55:41;;;;;;;48.72;16.85;;;3.30;99.90;;;;;;5117238;28;20484;-73
2022/12/11 06:58:09;;;;;;;54.03;16.85;;;3.30;99.90;;;;;;5098705;28;20099;-72
2022/12/11 07:00:35;;;;;;;51.05;16.50;;;3.20;99.90;;;;;;5117220;28;20047;-73
2022/12/11 07:03:01;;;;;;;54.55;16.27;;;3.00;99.90;;;;;;5116794;28;20047;-73
2022/12/11 07:05:27;;;;;;;54.10;16.15;;;3.00;99.90;;;;;;5117021;28;20336;-73
2022/12/11 07:07:53;;;;;;;49.05;16.73;;;2.90;99.90;;;;;;5116413;28;20071;-73
2022/12/11 07:10:20;;;;;;;53.22;16.35;;;3.00;99.90;;;;;;5099146;28;20039;-73
2022/12/11 07:12:46;;;;;;;51.03;17.80;;;3.20;99.90;;;;;;5119319;28;20042;-73
2022/12/11 07:15:11;;;;;;;46.78;15.80;;;3.20;99.90;;;;;;5086456;28;20040;-73
2022/12/11 07:17:37;;;;;;;53.13;16.25;;;3.10;99.90;;;;;;5121101;28;20054;-73
2022/12/11 07:20:03;;;;;;;41.83;15.63;;;3.20;99.90;;;;;;5120949;28;20126;-73
2022/12/11 07:22:29;;;;;;;44.83;15.32;;;3.10;99.90;;;;;;5103040;28;20040;-73
2022/12/11 07:24:55;;;;;;;47.67;16.35;;;3.10;99.90;;;;;;5121012;28;20395;-74
2022/12/11 07:27:20;;;;;;;55.03;16.63;;;3.10;99.90;;;;;;5120928;28;20114;-73
2022/12/11 07:29:46;;;;;;;50.83;15.43;;;3.10;99.90;;;;;;5102695;28;20039;-73
2022/12/11 07:32:12;;;;;;;42.85;15.30;;;3.20;99.90;;;;;;5102765;28;20046;-74
2022/12/11 07:34:37;;;;;;;52.83;16.38;;;3.30;99.90;;;;;;5103004;28;20110;-73
2022/12/11 07:37:03;;;;;;;45.75;15.55;;;3.30;99.90;;;;;;5102405;28;20377;-73
2022/12/11 07:39:29;;;;;;;59.63;18.00;;;3.30;99.90;;;;;;5120867;28;20075;-73
2022/12/11 07:41:54;;;;;;;49.75;16.10;;;3.30;99.90;;;;;;5102843;28;20317;-73
2022/12/11 07:44:20;;;;;;;49.20;16.15;;;3.30;99.90;;;;;;5120472;28;20378;-73
2022/12/11 07:46:46;;;;;;;44.75;15.40;;;3.40;99.90;;;;;;5120444;28;20059;-73
2022/12/11 07:49:12;;;;;;;49.55;17.13;;;3.40;99.90;;;;;;5120470;28;20047;-73
2022/12/11 07:51:37;;;;;;;41.20;15.40;;;3.30;99.90;;;;;;5120492;28;20092;-73
2022/12/11 07:54:15;;;;;;;38.65;14.30;;;3.40;99.90;;;;;;5120514;28;20062;-73
2022/12/11 07:56:42;;;;;;;45.33;15.18;;;3.40;99.90;;;;;;5120139;28;20035;-73
2022/12/11 07:59:08;;;;;;;46.90;14.90;;;3.40;99.90;;;;;;5120111;28;20039;-73
2022/12/11 08:01:35;;;;;;;45.03;15.18;;;3.20;99.90;;;;;;5102011;28;20055;-75
2022/12/11 08:04:02;;;;;;;55.45;15.75;;;3.10;99.90;;;;;;5120243;28;20043;-73
2022/12/11 08:06:30;;;;;;;48.70;15.57;;;3.10;99.90;;;;;;5101740;28;20043;-72
2022/12/11 08:08:57;;;;;;;48.75;15.90;;;3.20;99.90;;;;;;5102180;28;20039;-72
2022/12/11 08:11:24;;;;;;;51.17;17.15;;;3.20;99.90;;;;;;5101950;28;20413;-72
2022/12/11 08:13:49;;;;;;;56.25;16.15;;;3.20;99.90;;;;;;5120014;28;20467;-73
2022/12/11 08:16:16;;;;;;;45.53;16.52;;;3.30;99.90;;;;;;5119755;28;20067;-73
2022/12/11 08:18:43;;;;;;;55.42;17.83;;;3.30;99.90;;;;;;5101748;28;20047;-73
2022/12/11 08:21:12;;;;;;;47.72;16.55;;;3.30;99.90;;;;;;5119934;28;20043;-73
2022/12/11 08:23:37;;;;;;;55.20;15.82;;;3.10;99.90;;;;;;5119579;28;20040;-72
2022/12/11 08:26:05;;;;;;;58.67;16.98;;;3.10;99.90;;;;;;5101617;28;20036;-76
2022/12/11 08:28:32;;;;;;;56.30;15.30;;;3.10;99.90;;;;;;5101759;28;20058;-74
2022/12/11 08:30:58;;;;;;;56.17;17.10;;;3.20;99.90;;;;;;5101534;28;20089;-73
2022/12/11 08:33:24;;;;;;;74.30;19.27;;;3.20;99.90;;;;;;5119489;28;20495;-70
2022/12/11 08:35:50;;;;;;;47.33;16.10;;;3.30;99.90;;;;;;5119577;28;20074;-71
2022/12/11 08:38:16;;;;;;;42.85;15.90;;;3.40;99.90;;;;;;5101209;28;20082;-69
2022/12/11 08:40:42;;;;;;;59.53;18.13;;;3.50;99.90;;;;;;5101626;28;20472;-69
2022/12/11 08:43:08;;;;;;;60.70;17.88;;;3.50;99.90;;;;;;5119213;28;20035;-70
2022/12/11 08:45:33;;;;;;;45.63;16.15;;;3.50;99.90;;;;;;5119351;28;20076;-70
2022/12/11 08:47:59;;;;;;;50.03;17.05;;;3.50;99.90;;;;;;5101411;28;20079;-70
2022/12/11 08:50:25;;;;;;;65.55;18.92;;;3.60;99.90;;;;;;5119501;28;20050;-72
2022/12/11 08:52:52;;;;;;;73.50;19.73;;;3.50;99.90;;;;;;5119265;28;20040;-70
2022/12/11 08:55:18;;;;;;;60.42;17.60;;;3.50;99.90;;;;;;5119313;28;20077;-70
2022/12/11 08:57:44;;;;;;;57.63;17.45;;;3.50;99.90;;;;;;5118801;28;20043;-70
2022/12/11 09:00:11;;;;;;;58.55;17.63;;;3.20;99.90;;;;;;5119183;28;20117;-72
2022/12/11 09:02:37;;;;;;;52.80;16.70;;;3.10;99.90;;;;;;5119329;28;20040;-70
2022/12/11 09:05:06;;;;;;;56.13;15.98;;;3.00;99.90;;;;;;5100854;28;20039;-70
2022/12/11 09:07:33;;;;;;;51.05;16.73;;;3.00;99.90;;;;;;5118609;28;20036;-71
2022/12/11 09:09:59;;;;;;;53.95;18.35;;;3.00;99.90;;;;;;5100940;28;20367;-71
2022/12/11 09:12:26;;;;;;;55.80;16.65;;;3.00;99.90;;;;;;5118874;28;20043;-71
2022/12/11 09:14:52;;;;;;;46.47;15.68;;;3.00;99.90;;;;;;5083865;28;20126;-70
2022/12/11 09:17:17;;;;;;;53.33;17.13;;;2.90;99.90;;;;;;5118788;28;20062;-70
2022/12/11 09:19:43;;;;;;;53.08;16.23;;;2.80;99.90;;;;;;5118699;28;20051;-71
2022/12/11 09:22:10;;;;;;;55.10;16.05;;;2.80;99.90;;;;;;5121833;27;20118;-71
2022/12/11 09:24:36;;;;;;;58.08;18.77;;;2.70;99.90;;;;;;5133133;27;20035;-70
2022/12/11 09:27:03;;;;;;;65.95;17.27;;;2.80;99.90;;;;;;5119292;27;20039;-72
2022/12/11 09:29:29;;;;;;;50.92;16.00;;;2.80;99.90;;;;;;5138570;27;20039;-70
2022/12/11 09:31:55;;;;;;;67.13;18.30;;;2.70;99.90;;;;;;5120829;27;20035;-70
2022/12/11 09:34:21;;;;;;;56.58;18.55;;;2.90;99.90;;;;;;5137940;27;20046;-69
2022/12/11 09:36:47;;;;;;;67.97;17.95;;;2.70;99.90;;;;;;5138455;27;20047;-71
2022/12/11 09:39:14;;;;;;;54.47;17.38;;;2.80;99.90;;;;;;5137030;27;20454;-70
2022/12/11 09:41:48;;;;;;;63.58;18.80;;;2.90;99.90;;;;;;5124675;27;20031;-70
2022/12/11 09:44:30;;;;;;;76.68;20.13;;;3.10;99.90;;;;;;5119379;27;20349;-74
2022/12/11 09:46:57;;;;;;;55.38;17.90;;;3.10;99.90;;;;;;5102334;27;20032;-74
2022/12/11 09:49:44;;;;;;;51.40;17.23;;;3.20;99.90;;;;;;5117372;28;20118;-70
2022/12/11 09:52:31;;;;;;;63.40;18.40;;;3.30;99.90;;;;;;5100124;28;20058;-71
2022/12/11 09:55:02;;;;;;;61.28;18.27;;;3.40;99.90;;;;;;5099924;28;20488;-71
2022/12/11 09:58:00;;;;;;;49.70;18.27;;;3.40;99.90;;;;;;5117641;28;20055;-71
2022/12/11 10:00:50;;;;;;;54.15;17.00;;;3.50;99.90;;;;;;5117772;28;20044;-71
2022/12/11 10:03:35;;;;;;;53.35;17.27;;;3.50;99.90;;;;;;5100108;28;20036;-70
2022/12/11 10:06:16;;;;;;;49.70;18.77;;;3.40;99.90;;;;;;5117907;28;20035;-75
2022/12/11 10:09:01;;;;;;;60.35;18.38;;;3.30;99.90;;;;;;5099523;28;20123;-72
2022/12/11 10:12:01;;;;;;;64.85;17.55;;;3.20;99.90;;;;;;5117961;28;20035;-70
2022/12/11 10:14:39;;;;;;;48.95;16.40;;;3.10;99.90;;;;;;5101033;28;20051;-71
2022/12/11 10:17:22;;;;;;;65.63;19.52;;;2.90;99.90;;;;;;5117722;28;20074;-71
2022/12/11 10:19:48;;;;;;;61.75;18.45;;;2.90;99.90;;;;;;5117538;28;20127;-71
2022/12/11 10:22:25;;;;;;;53.50;17.70;;;3.00;99.90;;;;;;5117369;28;20047;-69
2022/12/11 10:24:58;;;;;;;58.60;17.67;;;3.00;99.90;;;;;;5117663;28;20074;-71
2022/12/11 10:27:30;;;;;;;57.20;18.52;;;3.00;99.90;;;;;;5099235;28;20396;-71
2022/12/11 10:30:20;;;;;;;65.28;19.58;;;3.10;99.90;;;;;;5082747;28;20475;-72
2022/12/11 10:33:15;;;;;;;55.72;16.85;;;3.10;99.90;;;;;;5117263;28;20039;-72
2022/12/11 10:35:55;;;;;;;54.85;18.05;;;3.20;99.90;;;;;;5117092;28;20032;-73
2022/12/11 10:38:28;;;;;;;67.35;20.00;;;3.30;99.90;;;;;;5116939;28;20031;-71
2022/12/11 10:41:03;;;;;;;60.75;18.75;;;3.10;99.90;;;;;;5099477;28;20356;-71
2022/12/11 10:43:41;;;;;;;58.80;17.80;;;3.10;99.90;;;;;;5117060;28;20032;-73
2022/12/11 10:46:21;;;;;;;61.28;18.60;;;3.20;99.90;;;;;;5117235;28;20031;-73
2022/12/11 10:48:54;;;;;;;62.60;19.08;;;3.00;99.90;;;;;;5099289;28;20046;-72
2022/12/11 10:51:32;;;;;;;54.95;18.83;;;3.10;99.90;;;;;;5116916;28;20431;-71
2022/12/11 10:54:30;;;;;;;58.88;18.52;;;2.90;99.90;;;;;;5099017;28;20040;-72
2022/12/11 10:56:58;;;;;;;57.88;17.52;;;2.80;99.90;;;;;;5113279;28;20035;-72
2022/12/11 10:59:37;;;;;;;68.78;19.75;;;2.70;99.90;;;;;;5116369;28;20043;-72
2022/12/11 11:02:06;;;;;;;59.42;18.35;;;2.80;99.90;;;;;;5116148;28;20039;-71
2022/12/11 11:04:36;;;;;;;70.75;19.67;;;2.80;99.90;;;;;;5116349;28;20368;-72
2022/12/11 11:07:12;;;;;;;63.92;18.92;;;2.60;99.90;;;;;;5115384;28;20031;-73
2022/12/11 11:09:38;;;;;;;56.15;19.02;;;2.60;99.90;;;;;;5097769;28;20054;-72
2022/12/11 11:12:16;;;;;;;54.15;18.17;;;2.80;99.90;;;;;;5115947;28;20039;-70
2022/12/11 11:14:41;;;;;;;64.38;19.10;;;2.70;99.90;;;;;;5116075;28;20036;-70
2022/12/11 11:17:14;;;;;;;60.05;19.10;;;2.80;99.90;;;;;;5097923;28;20491;-69
2022/12/11 11:19:40;;;;;;;63.42;19.42;;;2.90;99.90;;;;;;5097502;28;20108;-71
2022/12/11 11:22:11;;;;;;;54.50;18.05;;;3.00;99.90;;;;;;5115748;28;20126;-71
2022/12/11 11:25:14;;;;;;;68.28;18.35;;;2.70;99.90;;;;;;5115752;28;20071;-71
2022/12/11 11:27:50;;;;;;;54.97;17.05;;;2.70;99.90;;;;;;5091396;28;20047;-71
2022/12/11 11:30:20;;;;;;;44.97;15.40;;;2.70;99.90;;;;;;5115721;28;20039;-72
2022/12/11 11:32:46;;;;;;;65.03;20.65;;;2.80;99.90;;;;;;5081227;28;20063;-72
2022/12/11 11:35:12;;;;;;;60.72;18.17;;;3.00;99.90;;;;;;5097738;28;20447;-72
2022/12/11 11:37:41;;;;;;;57.30;18.45;;;3.10;99.90;;;;;;5115076;28;20122;-72
2022/12/11 11:40:25;;;;;;;56.00;18.02;;;3.00;99.90;;;;;;5114926;28;20079;-72
2022/12/11 11:43:28;;;;;;;59.58;18.95;;;2.60;99.90;;;;;;5115893;28;20115;-72
2022/12/11 11:46:11;;;;;;;66.03;19.35;;;2.70;99.90;;;;;;5097759;28;20040;-72
2022/12/11 11:48:59;;;;;;;53.30;18.35;;;2.80;99.90;;;;;;5115427;28;20080;-71
2022/12/11 11:51:32;;;;;;;50.95;17.17;;;2.90;99.90;;;;;;5115665;28;20040;-76
2022/12/11 11:54:33;;;;;;;57.90;18.20;;;2.90;99.90;;;;;;5114194;28;20432;-71
2022/12/11 11:57:05;;;;;;;53.85;17.67;;;2.90;99.90;;;;;;5076789;28;1091561;-73
2022/12/11 11:59:40;;;;;;;62.97;20.27;;;3.00;99.90;;;;;;5119394;28;20569;-73
2022/12/11 12:02:15;;;;;;;54.30;17.60;;;3.10;99.90;;;;;;5102485;28;20066;-73
2022/12/11 12:04:41;;;;;;;56.75;19.48;;;3.00;99.90;;;;;;5120386;28;20032;-74
2022/12/11 12:07:32;;;;;;;54.05;18.10;;;3.00;99.90;;;;;;5101700;28;20055;-75
2022/12/11 12:09:57;;;;;;;54.15;17.50;;;3.00;99.90;;;;;;5120071;28;20336;-75
2022/12/11 12:12:31;;;;;;;55.97;17.52;;;3.10;99.90;;;;;;5119947;28;20068;-74
2022/12/11 12:15:12;;;;;;;54.63;17.88;;;3.30;99.90;;;;;;5102017;28;20429;-74
2022/12/11 12:17:49;;;;;;;54.00;17.58;;;3.40;99.90;;;;;;5120093;28;20172;-76
2022/12/11 12:20:40;;;;;;;52.47;18.50;;;3.30;99.90;;;;;;5119831;28;20031;-77
2022/12/11 12:23:13;;;;;;;60.92;20.00;;;3.30;99.90;;;;;;5101763;28;20331;-75
2022/12/11 12:25:56;;;;;;;63.53;19.02;;;3.40;99.90;;;;;;5119832;28;20110;-72
2022/12/11 12:28:47;;;;;;;56.08;18.67;;;3.40;99.90;;;;;;5102038;28;20050;-72
2022/12/11 12:31:41;;;;;;;63.88;20.48;;;3.50;99.90;;;;;;5119867;28;20086;-72
2022/12/11 12:34:36;;;;;;;60.95;19.65;;;3.50;99.90;;;;;;5119687;28;20047;-72
2022/12/11 12:37:29;;;;;;;51.60;18.13;;;3.40;99.90;;;;;;5119612;28;20403;-72
2022/12/11 12:40:39;;;;;;;68.85;20.13;;;3.30;99.90;;;;;;5119776;28;20081;-71
2022/12/11 12:43:17;;;;;;;55.70;19.15;;;3.30;99.90;;;;;;5103096;28;20146;-70
2022/12/11 12:46:09;;;;;;;63.90;20.13;;;3.30;99.90;;;;;;5119441;28;20489;-71
2022/12/11 12:48:35;;;;;;;65.93;19.77;;;3.40;99.90;;;;;;5145305;27;20035;-73
2022/12/11 12:51:02;;;;;;;67.68;21.63;;;3.50;99.90;;;;;;5149260;27;20039;-72
2022/12/11 12:53:32;;;;;;;64.10;19.35;;;3.50;99.90;;;;;;5152776;27;20035;-72
2022/12/11 12:56:00;;;;;;;64.88;20.77;;;3.50;99.90;;;;;;5125695;27;20043;-73
2022/12/11 12:58:38;;;;;;;68.45;21.50;;;3.40;99.90;;;;;;5104332;27;20077;-69
2022/12/11 13:01:22;;;;;;;57.38;20.13;;;3.20;99.90;;;;;;5121395;27;20508;-69
2022/12/11 13:04:01;;;;;;;62.05;20.35;;;3.10;99.90;;;;;;5139641;27;20035;-70
2022/12/11 13:06:44;;;;;;;61.97;19.60;;;3.00;99.90;;;;;;5139602;27;20085;-69